Wildwood, New Jersey
Current Conditions -  °F | °C
As of 12:54 AM on Monday 26 Jan 2015 (Local Time) from KMIV Reporting Station
Overcast Overcast  
Wind Chill: 31°   Ceiling: 5000
Heat Index: 38°   Visibility: 10mi
Dew Point: 31°   Wind: 9mph
Humidity: 76%   Direction: 70°ENE
Pressure: 29.91"   Gusts: NA
Location:  38.99°N, 74.81°W
Report Text: KMIV 260554Z AUTO 07008KT 10SM OVC050 03/M01 A2991 RMK AO2 SLP129 T00331006 10061 20033 50000
Loading
Personal Weather Stations






























Interactive Weather Map New forecast layout! Learn more

10-Day Weather Forecast

Advertisements
Track Severe Weather on mobile